createdAt,value
2023-08-01T00:00:13.781Z,6.10
2023-08-01T00:02:43.566Z,7.57
2023-08-01T00:05:11.486Z,5.30
2023-08-01T00:07:38.640Z,3.63
2023-08-01T00:10:07.255Z,4.90
2023-08-01T00:12:34.048Z,4.93
2023-08-01T00:15:01.183Z,4.97
2023-08-01T00:17:28.072Z,5.13
2023-08-01T00:19:57.175Z,5.13
2023-08-01T00:22:24.116Z,4.90
2023-08-01T00:24:51.033Z,7.18
2023-08-01T00:27:17.926Z,5.50
2023-08-01T00:29:44.974Z,3.53
2023-08-01T00:32:11.863Z,3.53
2023-08-01T00:34:39.193Z,4.45
2023-08-01T00:37:06.365Z,4.65
2023-08-01T00:39:34.620Z,5.50
2023-08-01T00:42:02.009Z,4.63
2023-08-01T00:44:28.759Z,4.68
2023-08-01T00:46:55.645Z,5.53
2023-08-01T00:49:22.750Z,6.15
2023-08-01T00:51:49.884Z,5.65
2023-08-01T00:54:17.306Z,5.57
2023-08-01T00:56:44.579Z,6.50
2023-08-01T00:59:11.564Z,4.43
2023-08-01T01:01:40.577Z,6.20
2023-08-01T01:04:07.470Z,4.40
2023-08-01T01:06:38.995Z,5.07
2023-08-01T01:09:17.477Z,5.47
2023-08-01T01:11:46.329Z,4.32
2023-08-01T01:14:13.221Z,6.82
2023-08-01T01:16:40.597Z,5.32
2023-08-01T01:19:09.509Z,3.70
2023-08-01T01:24:21.563Z,4.10
2023-08-01T01:26:48.390Z,4.70
2023-08-01T01:29:15.256Z,4.28
2023-08-01T01:31:42.360Z,5.88
2023-08-01T01:34:09.465Z,5.50
2023-08-01T01:36:37.651Z,4.13
2023-08-01T01:39:04.695Z,3.70
2023-08-01T01:41:31.660Z,3.75
2023-08-01T01:43:58.996Z,4.20
2023-08-01T01:46:27.033Z,4.78
2023-08-01T01:48:53.868Z,3.85
2023-08-01T01:51:23.274Z,3.65
2023-08-01T01:53:50.257Z,4.63
2023-08-01T01:56:17.035Z,7.68
2023-08-01T01:58:43.949Z,4.47
2023-08-01T02:01:10.786Z,4.80
2023-08-01T02:03:38.534Z,4.45
2023-08-01T02:06:05.468Z,4.65
2023-08-01T02:08:38.739Z,7.20
2023-08-01T02:11:05.833Z,4.93
2023-08-01T02:13:35.286Z,6.05
2023-08-01T02:16:03.685Z,4.18
2023-08-01T02:18:31.050Z,4.72
2023-08-01T02:20:58.135Z,4.90
2023-08-01T02:23:24.894Z,3.33
2023-08-01T02:25:52.652Z,8.15
2023-08-01T02:28:19.616Z,3.67
2023-08-01T02:30:46.493Z,4.93
2023-08-01T02:33:13.369Z,3.53
2023-08-01T02:35:40.355Z,3.78
2023-08-01T02:38:07.145Z,5.35
2023-08-01T02:40:33.970Z,4.05
2023-08-01T02:43:00.842Z,3.58
2023-08-01T02:45:27.672Z,4.53
2023-08-01T02:47:57.153Z,3.60
2023-08-01T02:50:25.135Z,3.55
2023-08-01T02:52:52.091Z,6.88
2023-08-01T02:55:18.902Z,4.30
2023-08-01T02:57:46.156Z,4.97
2023-08-01T03:00:13.193Z,3.88
2023-08-01T03:02:40.746Z,5.47
2023-08-01T03:05:09.183Z,4.95
2023-08-01T03:07:36.076Z,3.63
2023-08-01T03:10:03.311Z,5.47
2023-08-01T03:12:30.651Z,6.60
2023-08-01T03:14:57.486Z,3.58
2023-08-01T03:17:24.369Z,4.40
2023-08-01T03:19:51.273Z,4.43
2023-08-01T03:22:18.072Z,4.53
2023-08-01T03:24:45.166Z,4.97
2023-08-01T03:27:11.974Z,8.48
2023-08-01T03:29:39.409Z,4.53
2023-08-01T03:32:07.197Z,5.18
2023-08-01T03:34:34.035Z,5.07
2023-08-01T03:37:01.160Z,3.70
2023-08-01T03:39:28.337Z,4.38
2023-08-01T03:41:55.263Z,3.75
2023-08-01T03:44:25.145Z,3.97
2023-08-01T03:46:51.987Z,7.15
2023-08-01T03:49:19.509Z,5.18
2023-08-01T03:51:46.484Z,3.35
2023-08-01T03:54:14.461Z,4.68
2023-08-01T03:56:44.893Z,4.45
2023-08-01T03:59:16.074Z,3.88
2023-08-01T04:01:43.274Z,5.28
2023-08-01T04:04:10.492Z,4.30
2023-08-01T04:06:39.767Z,4.00
2023-08-01T04:09:08.148Z,5.35
2023-08-01T04:11:35.265Z,3.67
2023-08-01T04:14:03.351Z,5.30
2023-08-01T04:16:30.616Z,3.65
2023-08-01T04:18:57.568Z,3.80
2023-08-01T04:21:24.358Z,4.25
2023-08-01T04:23:51.440Z,3.55
2023-08-01T04:26:18.334Z,7.70
2023-08-01T04:28:46.776Z,6.20
2023-08-01T04:31:13.665Z,7.15
2023-08-01T04:33:40.469Z,5.72
2023-08-01T04:36:07.467Z,8.27
2023-08-01T04:38:34.335Z,4.88
2023-08-01T04:41:01.494Z,8.85
2023-08-01T04:43:28.300Z,10.65
2023-08-01T04:45:55.556Z,5.95
2023-08-01T04:48:22.502Z,6.60
2023-08-01T04:50:49.252Z,8.68
2023-08-01T04:53:16.069Z,5.97
2023-08-01T04:55:42.957Z,7.13
2023-08-01T04:58:11.808Z,8.27
2023-08-01T05:00:39.621Z,6.72
2023-08-01T05:03:07.597Z,8.02
2023-08-01T05:05:34.593Z,10.25
2023-08-01T05:08:01.476Z,7.55
2023-08-01T05:10:28.342Z,4.85
2023-08-01T05:12:55.208Z,7.75
2023-08-01T05:15:22.319Z,5.43
2023-08-01T05:17:49.160Z,7.78
2023-08-01T05:20:16.513Z,6.13
2023-08-01T05:22:43.329Z,6.30
2023-08-01T05:25:10.330Z,8.27
2023-08-01T05:27:37.600Z,7.72
2023-08-01T05:30:05.304Z,6.57
2023-08-01T05:32:34.033Z,6.25
2023-08-01T05:35:03.118Z,5.95
2023-08-01T05:37:31.477Z,7.82
2023-08-01T05:39:58.357Z,6.78
2023-08-01T05:42:25.145Z,5.85
2023-08-01T05:44:52.029Z,10.68
2023-08-01T05:47:19.312Z,7.93
2023-08-01T05:49:46.425Z,7.28
2023-08-01T05:52:13.829Z,12.02
2023-08-01T05:54:41.149Z,7.70
2023-08-01T05:57:08.805Z,8.70
2023-08-01T05:59:35.602Z,7.82
2023-08-01T06:02:02.594Z,9.75
2023-08-01T06:04:30.132Z,10.93
2023-08-01T06:06:57.260Z,8.68
2023-08-01T06:09:24.733Z,8.93
2023-08-01T06:11:51.784Z,9.15
2023-08-01T06:14:18.766Z,10.43
2023-08-01T06:16:45.577Z,9.15
2023-08-01T06:19:12.401Z,10.23
2023-08-01T06:21:40.776Z,5.55
2023-08-01T06:24:11.054Z,16.50
2023-08-01T06:26:38.368Z,6.65
2023-08-01T06:29:08.654Z,9.95
2023-08-01T06:31:36.026Z,6.20
2023-08-01T06:34:02.932Z,11.45
2023-08-01T06:36:30.039Z,8.45
2023-08-01T06:38:56.930Z,7.18
2023-08-01T06:41:23.726Z,10.57
2023-08-01T06:43:52.907Z,15.30
2023-08-01T06:46:20.229Z,13.02
2023-08-01T06:48:47.042Z,8.93
2023-08-01T06:51:13.892Z,9.30
2023-08-01T06:53:40.813Z,8.13
2023-08-01T06:56:07.611Z,6.63
2023-08-01T06:58:34.437Z,5.38
2023-08-01T07:01:01.911Z,6.28
2023-08-01T07:03:29.150Z,9.57
2023-08-01T07:05:56.323Z,7.97
2023-08-01T07:08:24.518Z,5.57
2023-08-01T07:10:51.319Z,7.10
2023-08-01T07:13:20.508Z,5.82
2023-08-01T07:16:00.569Z,8.70
2023-08-01T07:21:16.657Z,5.95
2023-08-01T07:23:50.237Z,7.82
2023-08-01T07:26:17.450Z,4.82
2023-08-01T07:28:47.222Z,5.78
2023-08-01T07:31:14.076Z,6.25
2023-08-01T07:33:40.824Z,7.88
2023-08-01T07:36:07.728Z,6.40
2023-08-01T07:38:34.548Z,6.82
2023-08-01T07:41:08.812Z,10.05
2023-08-01T07:43:35.580Z,7.13
2023-08-01T07:46:02.558Z,8.32
2023-08-01T07:48:31.973Z,8.65
2023-08-01T07:50:59.098Z,5.55
2023-08-01T07:53:26.021Z,6.28
2023-08-01T07:55:54.146Z,7.55
2023-08-01T07:58:21.326Z,7.03
2023-08-01T08:00:49.586Z,4.90
2023-08-01T08:03:16.573Z,8.52
2023-08-01T08:05:43.574Z,4.78
2023-08-01T08:08:10.322Z,8.65
2023-08-01T08:10:37.079Z,4.78
2023-08-01T08:13:03.899Z,6.13
2023-08-01T08:15:34.683Z,4.63
2023-08-01T08:18:05.388Z,7.80
2023-08-01T08:20:33.036Z,5.95
2023-08-01T08:23:00.345Z,5.65
2023-08-01T08:25:27.112Z,4.78
2023-08-01T08:27:55.172Z,5.55
2023-08-01T08:30:22.000Z,8.25
2023-08-01T08:32:48.918Z,8.55
2023-08-01T08:35:15.932Z,7.15
2023-08-01T08:37:43.293Z,7.60
2023-08-01T08:40:11.046Z,7.85
2023-08-01T08:42:37.880Z,5.28
2023-08-01T08:45:05.287Z,6.68
2023-08-01T08:47:32.482Z,6.70
2023-08-01T08:49:59.303Z,5.57
2023-08-01T08:52:27.072Z,3.97
2023-08-01T08:54:54.412Z,6.63
2023-08-01T08:57:24.076Z,4.90
2023-08-01T08:59:51.400Z,4.82
2023-08-01T09:02:18.532Z,3.97
2023-08-01T09:04:45.467Z,10.45
2023-08-01T09:07:14.370Z,6.65
2023-08-01T09:09:41.272Z,5.30
2023-08-01T09:12:09.438Z,7.53
2023-08-01T09:14:36.995Z,4.47
2023-08-01T09:17:09.031Z,7.88
2023-08-01T09:19:37.737Z,5.68
2023-08-01T09:22:15.749Z,13.40
2023-08-01T09:24:55.668Z,8.50
2023-08-01T09:27:25.421Z,6.93
2023-08-01T09:29:52.705Z,5.32
2023-08-01T09:32:20.075Z,6.45
2023-08-01T09:34:47.017Z,5.30
2023-08-01T09:37:14.195Z,4.32
2023-08-01T09:39:41.100Z,5.30
2023-08-01T09:42:10.624Z,7.90
2023-08-01T09:44:38.002Z,6.30
2023-08-01T09:47:21.734Z,3.95
2023-08-01T09:49:50.348Z,5.32
2023-08-01T09:52:27.225Z,5.80
2023-08-01T09:54:55.373Z,5.82
2023-08-01T09:57:24.707Z,5.05
2023-08-01T09:59:51.620Z,7.80
2023-08-01T10:02:18.433Z,5.38
2023-08-01T10:04:46.575Z,5.28
2023-08-01T10:07:15.632Z,4.53
2023-08-01T10:09:42.668Z,4.90
2023-08-01T10:12:09.851Z,5.28
2023-08-01T10:14:37.255Z,5.10
2023-08-01T10:17:05.455Z,6.50
2023-08-01T10:19:36.742Z,6.85
2023-08-01T10:22:03.856Z,5.18
2023-08-01T10:24:30.646Z,7.22
2023-08-01T10:26:57.404Z,6.20
2023-08-01T10:29:36.285Z,6.47
2023-08-01T10:32:03.520Z,6.22
2023-08-01T10:34:30.427Z,5.55
2023-08-01T10:36:59.748Z,5.55
2023-08-01T10:39:30.136Z,7.80
2023-08-01T10:42:08.192Z,4.93
2023-08-01T10:44:45.331Z,7.53
2023-08-01T10:47:13.264Z,5.40
2023-08-01T10:49:45.845Z,9.23
2023-08-01T10:52:19.499Z,7.15
2023-08-01T10:54:48.104Z,5.32
2023-08-01T10:57:21.903Z,8.35
2023-08-01T10:59:49.755Z,6.38
2023-08-01T11:02:26.614Z,9.20
2023-08-01T11:04:57.657Z,10.90
2023-08-01T11:07:25.495Z,11.98
2023-08-01T11:10:05.308Z,7.82
2023-08-01T11:12:40.386Z,8.82
2023-08-01T11:15:13.215Z,6.70
2023-08-01T11:20:12.012Z,7.68
2023-08-01T11:22:39.967Z,8.05
2023-08-01T11:25:08.289Z,6.32
2023-08-01T11:27:35.928Z,9.15
2023-08-01T11:30:04.856Z,10.10
2023-08-01T11:32:36.021Z,8.90
2023-08-01T11:35:05.455Z,7.40
2023-08-01T11:37:37.444Z,8.40
2023-08-01T11:40:10.392Z,8.48
2023-08-01T11:42:37.313Z,10.02
2023-08-01T11:45:15.156Z,11.63
2023-08-01T11:47:48.560Z,9.98
2023-08-01T11:50:22.252Z,9.93
2023-08-01T11:52:49.089Z,8.93
2023-08-01T11:55:23.629Z,8.75
2023-08-01T11:58:10.429Z,10.48
2023-08-01T12:00:38.767Z,9.63
2023-08-01T12:03:14.446Z,8.27
2023-08-01T12:05:42.591Z,8.50
2023-08-01T12:08:13.211Z,6.60
2023-08-01T12:10:44.779Z,11.75
2023-08-01T12:13:24.186Z,9.40
2023-08-01T12:15:52.475Z,8.80
2023-08-01T12:21:01.022Z,6.35
2023-08-01T12:23:28.173Z,9.25
2023-08-01T12:26:00.713Z,6.90
2023-08-01T12:28:28.639Z,6.88
2023-08-01T12:30:55.666Z,7.70
2023-08-01T12:33:27.984Z,5.80
2023-08-01T12:35:57.042Z,6.65
2023-08-01T12:38:24.855Z,6.85
2023-08-01T12:40:51.661Z,6.35
2023-08-01T12:43:19.535Z,9.63
2023-08-01T12:45:50.957Z,9.60
2023-08-01T12:48:20.231Z,6.30
2023-08-01T12:50:47.660Z,5.50
2023-08-01T12:53:16.498Z,7.70
2023-08-01T12:55:48.331Z,6.20
2023-08-01T12:58:15.311Z,7.22
2023-08-01T13:00:42.879Z,7.43
2023-08-01T13:03:17.622Z,6.82
2023-08-01T13:05:45.738Z,6.10
2023-08-01T13:08:13.343Z,7.80
2023-08-01T13:10:41.248Z,7.15
2023-08-01T13:13:08.548Z,10.98
2023-08-01T13:15:36.075Z,9.73
2023-08-01T13:18:02.878Z,7.28
2023-08-01T13:20:32.069Z,7.40
2023-08-01T13:23:00.760Z,8.23
2023-08-01T13:25:28.258Z,8.73
2023-08-01T13:27:55.110Z,8.07
2023-08-01T13:30:22.386Z,6.63
2023-08-01T13:32:50.239Z,8.27
2023-08-01T13:35:20.831Z,7.75
2023-08-01T13:37:48.716Z,7.93
2023-08-01T13:40:15.679Z,6.10
2023-08-01T13:42:42.840Z,7.07
2023-08-01T13:45:10.777Z,7.40
2023-08-01T13:47:38.788Z,9.23
2023-08-01T13:50:06.195Z,9.45
2023-08-01T13:52:33.301Z,9.70
2023-08-01T13:55:00.727Z,9.35
2023-08-01T13:57:27.584Z,10.95
2023-08-01T14:00:02.272Z,9.07
2023-08-01T14:02:38.727Z,7.43
2023-08-01T14:05:06.132Z,9.40
2023-08-01T14:07:36.095Z,9.13
2023-08-01T14:10:07.727Z,9.55
2023-08-01T14:12:38.499Z,7.57
2023-08-01T14:15:07.941Z,9.85
2023-08-01T14:17:35.558Z,8.45
2023-08-01T14:20:05.295Z,9.77
2023-08-01T14:22:34.678Z,11.82
2023-08-01T14:25:03.473Z,9.48
2023-08-01T14:27:31.529Z,10.23
2023-08-01T14:29:58.719Z,7.60
2023-08-01T14:32:26.829Z,9.52
2023-08-01T14:34:55.270Z,8.63
2023-08-01T14:37:26.978Z,15.32
2023-08-01T14:39:54.876Z,7.88
2023-08-01T14:42:21.969Z,8.85
2023-08-01T14:44:55.944Z,10.20
2023-08-01T14:47:25.149Z,8.57
2023-08-01T14:49:52.532Z,10.25
2023-08-01T14:52:25.087Z,8.70
2023-08-01T14:54:52.864Z,8.48
2023-08-01T14:57:22.327Z,8.68
2023-08-01T14:59:49.189Z,8.55
2023-08-01T15:02:16.834Z,9.23
2023-08-01T15:04:50.752Z,9.30
2023-08-01T15:07:20.552Z,8.60
2023-08-01T15:09:47.700Z,7.72
2023-08-01T15:12:14.599Z,9.88
2023-08-01T15:14:41.370Z,6.80
2023-08-01T15:17:11.541Z,7.05
2023-08-01T15:19:40.637Z,7.63
2023-08-01T15:22:08.271Z,9.52
2023-08-01T15:24:35.497Z,8.25
2023-08-01T15:27:04.803Z,6.72
2023-08-01T15:29:31.674Z,9.55
2023-08-01T15:32:04.281Z,8.35
2023-08-01T15:34:39.186Z,6.35
2023-08-01T15:37:09.794Z,8.35
2023-08-01T15:39:37.160Z,7.95
2023-08-01T15:42:04.784Z,8.18
2023-08-01T15:44:33.645Z,9.55
2023-08-01T15:47:02.046Z,6.93
2023-08-01T15:49:31.497Z,6.88
2023-08-01T15:51:58.321Z,6.90
2023-08-01T15:54:25.748Z,7.65
2023-08-01T15:56:54.215Z,7.18
2023-08-01T15:59:22.644Z,8.15
2023-08-01T16:01:52.817Z,10.60
2023-08-01T16:04:19.729Z,8.90
2023-08-01T16:06:46.564Z,7.43
2023-08-01T16:09:19.486Z,9.57
2023-08-01T16:11:47.678Z,10.73
2023-08-01T16:14:17.233Z,9.98
2023-08-01T16:16:48.346Z,9.45
2023-08-01T16:19:15.193Z,9.25
2023-08-01T16:21:42.317Z,11.90
2023-08-01T16:24:09.736Z,10.23
2023-08-01T16:26:39.091Z,9.63
2023-08-01T16:29:06.464Z,11.20
2023-08-01T16:31:35.623Z,11.25
2023-08-01T16:34:02.495Z,10.05
2023-08-01T16:36:29.695Z,8.85
2023-08-01T16:38:57.645Z,8.73
2023-08-01T16:41:29.795Z,8.25
2023-08-01T16:43:57.909Z,10.17
2023-08-01T16:46:24.896Z,10.13
2023-08-01T16:48:52.913Z,12.15
2023-08-01T16:51:19.933Z,9.43
2023-08-01T16:53:48.155Z,8.98
2023-08-01T16:56:15.611Z,12.85
2023-08-01T16:58:43.356Z,8.52
2023-08-01T17:01:10.225Z,11.57
2023-08-01T17:03:41.512Z,9.85
2023-08-01T17:06:11.806Z,11.18
2023-08-01T17:08:39.779Z,11.00
2023-08-01T17:11:07.134Z,9.23
2023-08-01T17:13:35.909Z,10.30
2023-08-01T17:16:03.802Z,11.07
2023-08-01T17:18:31.960Z,9.77
2023-08-01T17:21:01.131Z,10.45
2023-08-01T17:23:35.307Z,11.38
2023-08-01T17:26:08.193Z,8.45
2023-08-01T17:31:06.817Z,11.88
2023-08-01T17:33:36.225Z,11.13
2023-08-01T17:36:04.360Z,9.65
2023-08-01T17:38:31.318Z,8.23
2023-08-01T17:40:58.220Z,9.15
2023-08-01T17:43:25.031Z,8.55
2023-08-01T17:45:52.038Z,9.63
2023-08-01T17:48:20.273Z,9.60
2023-08-01T17:50:49.170Z,11.75
2023-08-01T17:53:19.580Z,10.57
2023-08-01T17:55:47.761Z,8.90
2023-08-01T17:58:17.601Z,11.15
2023-08-01T18:00:50.691Z,11.65
2023-08-01T18:03:18.503Z,11.05
2023-08-01T18:05:45.419Z,11.20
2023-08-01T18:08:12.453Z,11.65
2023-08-01T18:10:40.647Z,11.45
2023-08-01T18:13:09.742Z,9.38
2023-08-01T18:15:41.572Z,9.73
2023-08-01T18:18:16.516Z,11.27
2023-08-01T18:20:44.098Z,9.45
2023-08-01T18:23:10.983Z,12.10
2023-08-01T18:25:38.431Z,8.55
2023-08-01T18:28:07.613Z,10.50
2023-08-01T18:30:35.680Z,11.38
2023-08-01T18:33:04.648Z,8.98
2023-08-01T18:35:31.442Z,10.20
2023-08-01T18:37:59.858Z,10.32
2023-08-01T18:40:27.106Z,8.35
2023-08-01T18:42:58.377Z,11.40
2023-08-01T18:45:25.287Z,10.70
2023-08-01T18:47:54.641Z,8.73
2023-08-01T18:50:21.578Z,9.93
2023-08-01T18:52:50.779Z,8.48
2023-08-01T18:55:25.437Z,11.68
2023-08-01T18:57:52.564Z,9.80
2023-08-01T19:00:20.504Z,8.32
2023-08-01T19:02:47.969Z,8.95
2023-08-01T19:05:20.674Z,6.75
2023-08-01T19:07:51.362Z,9.40
2023-08-01T19:10:18.267Z,9.40
2023-08-01T19:12:46.648Z,10.10
2023-08-01T19:15:14.313Z,9.15
2023-08-01T19:17:42.634Z,9.85
2023-08-01T19:20:12.795Z,7.32
2023-08-01T19:22:41.119Z,9.00
2023-08-01T19:25:09.720Z,11.05
2023-08-01T19:27:37.134Z,8.70
2023-08-01T19:30:06.280Z,9.15
2023-08-01T19:32:34.798Z,9.90
2023-08-01T19:35:02.017Z,7.60
2023-08-01T19:37:28.929Z,9.95
2023-08-01T19:39:55.705Z,9.18
2023-08-01T19:42:22.612Z,8.18
2023-08-01T19:44:49.716Z,8.73
2023-08-01T19:47:16.618Z,7.53
2023-08-01T19:49:43.509Z,9.38
2023-08-01T19:52:11.413Z,8.30
2023-08-01T19:54:38.652Z,10.20
2023-08-01T19:57:08.378Z,7.38
2023-08-01T19:59:35.288Z,7.43
2023-08-01T20:02:04.799Z,8.50
2023-08-01T20:04:32.091Z,8.85
2023-08-01T20:07:02.029Z,8.68
2023-08-01T20:09:30.444Z,8.10
2023-08-01T20:11:57.803Z,9.55
2023-08-01T20:14:24.635Z,7.13
2023-08-01T20:16:52.399Z,11.77
2023-08-01T20:19:22.034Z,8.75
2023-08-01T20:21:48.866Z,9.90
2023-08-01T20:24:17.819Z,8.63
2023-08-01T20:26:45.752Z,8.93
2023-08-01T20:29:13.063Z,9.63
2023-08-01T20:31:39.855Z,9.35
2023-08-01T20:34:08.723Z,8.73
2023-08-01T20:36:37.607Z,8.43
2023-08-01T20:39:05.227Z,8.30
2023-08-01T20:41:32.219Z,10.52
2023-08-01T20:44:01.697Z,7.95
2023-08-01T20:46:32.407Z,8.88
2023-08-01T20:49:01.490Z,9.75
2023-08-01T20:51:28.426Z,7.15
2023-08-01T20:53:58.094Z,7.75
2023-08-01T20:56:25.497Z,7.93
2023-08-01T20:58:52.337Z,8.23
2023-08-01T21:01:19.690Z,10.32
2023-08-01T21:03:46.754Z,5.68
2023-08-01T21:06:17.991Z,5.82
2023-08-01T21:09:02.757Z,4.72
2023-08-01T21:11:32.630Z,4.32
2023-08-01T21:13:59.765Z,4.85
2023-08-01T21:16:26.592Z,6.03
2023-08-01T21:18:53.931Z,4.53
2023-08-01T21:21:23.708Z,3.33
2023-08-01T21:23:54.844Z,4.18
2023-08-01T21:26:21.672Z,4.47
2023-08-01T21:28:49.090Z,3.75
2023-08-01T21:31:16.506Z,3.75
2023-08-01T21:33:44.536Z,3.40
2023-08-01T21:36:14.004Z,3.55
2023-08-01T21:38:42.392Z,4.72
2023-08-01T21:41:18.146Z,6.55
2023-08-01T21:43:45.283Z,3.33
2023-08-01T21:46:14.353Z,3.45
2023-08-01T21:48:43.383Z,3.03
2023-08-01T21:51:10.712Z,5.95
2023-08-01T21:53:40.373Z,3.65
2023-08-01T21:56:07.160Z,8.55
2023-08-01T21:58:34.084Z,4.78
2023-08-01T22:01:01.006Z,2.92
2023-08-01T22:03:27.974Z,3.63
2023-08-01T22:06:00.152Z,3.28
2023-08-01T22:08:34.231Z,2.53
2023-08-01T22:11:02.456Z,4.38
2023-08-01T22:13:30.858Z,2.75
2023-08-01T22:15:58.197Z,2.72
2023-08-01T22:18:25.292Z,3.13
2023-08-01T22:20:57.431Z,3.20
2023-08-01T22:23:25.801Z,3.40
2023-08-01T22:25:57.254Z,3.85
2023-08-01T22:28:26.026Z,3.83
2023-08-01T22:30:53.028Z,2.45
2023-08-01T22:33:20.147Z,3.08
2023-08-01T22:35:49.427Z,4.43
2023-08-01T22:38:17.570Z,2.53
2023-08-01T22:40:47.226Z,3.28
2023-08-01T22:43:16.934Z,3.83
2023-08-01T22:45:43.804Z,3.22
2023-08-01T22:48:10.708Z,3.00
2023-08-01T22:50:39.957Z,4.10
2023-08-01T22:53:08.860Z,3.35
2023-08-01T22:55:36.851Z,3.33
2023-08-01T22:58:03.790Z,3.65
2023-08-01T23:00:31.053Z,6.60
2023-08-01T23:02:58.013Z,3.70
2023-08-01T23:05:25.091Z,4.43
2023-08-01T23:07:54.206Z,3.42
2023-08-01T23:10:30.633Z,3.47
2023-08-01T23:13:07.417Z,2.40
2023-08-01T23:15:35.668Z,3.83
2023-08-01T23:18:03.609Z,3.50
2023-08-01T23:20:30.461Z,2.78
2023-08-01T23:22:57.318Z,2.92
2023-08-01T23:25:25.222Z,2.65
2023-08-01T23:27:52.379Z,2.83
2023-08-01T23:30:20.345Z,2.90
2023-08-01T23:32:47.231Z,3.80
2023-08-01T23:35:16.596Z,2.63
2023-08-01T23:37:44.989Z,3.05
2023-08-01T23:40:13.746Z,5.13
2023-08-01T23:42:40.503Z,1.90
2023-08-01T23:45:08.716Z,4.38
2023-08-01T23:47:36.514Z,3.15
2023-08-01T23:50:04.338Z,3.47
2023-08-01T23:52:32.701Z,3.80
2023-08-01T23:55:00.174Z,2.75
2023-08-01T23:57:29.784Z,4.72
2023-08-01T23:59:56.644Z,5.05
